Time;durP1;ratioP1;P1;durP2;ratioP2;P2;SDS_P1;SDS_P2;PMS_P1;PMS_P2;Temp;Humidity;BMP_temperature;BMP_pressure;BME280_temperature;BME280_humidity;BME280_pressure;Samples;Min_cycle;Max_cycle;Signal;HPM_P1;HPM_P2
2023/03/01 00:02:21;;;;;;;;;;;;;;;3.00;100.00;98724.06;5085175;28;19924;-87
2023/03/01 00:04:48;;;;;;;;;;;;;;;3.07;100.00;98714.34;5064079;28;19975;-86
2023/03/01 00:07:14;;;;;;;;;;;;;;;3.16;100.00;98713.16;5046481;28;19935;-87
2023/03/01 00:09:41;;;;;;;;;;;;;;;3.10;100.00;98714.75;5065682;28;19928;-86
2023/03/01 00:12:07;;;;;;;;;;;;;;;3.18;100.00;98727.81;5071983;28;19977;-85
2023/03/01 00:14:36;;;;;;;;;;;;;;;2.94;100.00;98724.84;5072180;28;19928;-83
2023/03/01 00:17:02;;;;;;;;;;;;;;;2.73;100.00;98720.44;5058038;28;19924;-84
2023/03/01 00:19:29;;;;;;;;;;;;;;;2.40;100.00;98722.03;5080730;28;19997;-84
2023/03/01 00:21:55;;;;;;;;;;;;;;;2.11;100.00;98723.00;5074060;28;19985;-85
2023/03/01 00:24:21;;;;;;;;;;;;;;;2.00;100.00;98715.59;5055426;28;20007;-86
2023/03/01 00:26:48;;;;;;;;;;;;;;;2.19;100.00;98720.25;5079449;28;20010;-83
2023/03/01 00:29:14;;;;;;;;;;;;;;;2.50;100.00;98711.97;5082891;28;20598;-84
2023/03/01 00:31:42;;;;;;;;;;;;;;;2.34;100.00;98712.25;5080096;28;19985;-85
2023/03/01 00:34:08;;;;;;;;;;;;;;;2.58;100.00;98720.53;5074439;28;19928;-84
2023/03/01 00:36:36;;;;;;;;;;;;;;;2.66;100.00;98701.13;5084613;28;19924;-83
2023/03/01 00:39:04;;;;;;;;;;;;;;;2.83;100.00;98710.34;5063769;28;19927;-83
2023/03/01 00:41:30;;;;;;;;;;;;;;;2.93;100.00;98707.38;5079064;28;19928;-83
2023/03/01 00:43:56;;;;;;;;;;;;;;;3.09;100.00;98707.88;5082872;28;19924;-82
2023/03/01 00:46:24;;;;;;;;;;;;;;;3.16;100.00;98707.88;5075730;28;20225;-83
2023/03/01 00:48:51;;;;;;;;;;;;;;;3.18;100.00;98706.69;5076270;28;20487;-84
2023/03/01 00:51:20;;;;;;;;;;;;;;;3.23;100.00;98706.91;5056130;28;20005;-83
2023/03/01 00:53:46;;;;;;;;;;;;;;;3.30;100.00;98704.31;5064250;28;19938;-84
2023/03/01 00:56:13;;;;;;;;;;;;;;;3.40;100.00;98703.94;5052351;28;19924;-82
2023/03/01 00:58:40;;;;;;;;;;;;;;;3.45;100.00;98707.59;5049186;28;19978;-84
2023/03/01 01:01:17;;;;;;;;;;;;;;;3.41;100.00;98701.09;5056151;28;20459;-83
2023/03/01 01:03:43;;;;;;;;;;;;;;;3.22;100.00;98697.34;5061554;28;19959;-85
2023/03/01 01:06:15;;;;;;;;;;;;;;;2.80;100.00;98694.91;5076419;28;20383;-84
2023/03/01 01:08:41;;;;;;;;;;;;;;;2.63;100.00;98690.97;5066301;28;19968;-83
2023/03/01 01:11:09;;;;;;;;;;;;;;;2.59;100.00;98687.09;5063611;28;20695;-83
2023/03/01 01:13:36;;;;;;;;;;;;;;;2.76;100.00;98679.66;5077045;28;20395;-84
2023/03/01 01:16:03;;;;;;;;;;;;;;;2.83;100.00;98683.97;5072371;28;20478;-83
2023/03/01 01:18:29;;;;;;;;;;;;;;;2.78;100.00;98681.13;5073596;28;19928;-83
2023/03/01 01:20:55;;;;;;;;;;;;;;;2.90;100.00;98676.91;5069132;28;20364;-83
2023/03/01 01:23:23;;;;;;;;;;;;;;;2.95;100.00;98679.78;5070995;28;20371;-84
2023/03/01 01:25:50;;;;;;;;;;;;;;;3.06;100.00;98671.31;5065717;28;20004;-83
2023/03/01 01:28:16;;;;;;;;;;;;;;;3.16;100.00;98674.38;5067186;28;19934;-83
2023/03/01 01:30:43;;;;;;;;;;;;;;;3.25;100.00;98675.84;5062178;28;19924;-84
2023/03/01 01:33:09;;;;;;;;;;;;;;;3.32;100.00;98667.94;5054570;28;20118;-83
2023/03/01 01:35:36;;;;;;;;;;;;;;;3.37;100.00;98667.38;5079736;28;20078;-83
2023/03/01 01:38:02;;;;;;;;;;;;;;;3.40;100.00;98673.06;5074242;28;20544;-82
2023/03/01 01:40:30;;;;;;;;;;;;;;;3.43;100.00;98662.13;5069102;28;20447;-83
2023/03/01 01:42:56;;;;;;;;;;;;;;;3.45;100.00;98653.97;5071733;28;19928;-84
2023/03/01 01:45:27;;;;;;;;;;;;;;;3.44;100.00;98654.97;5062376;28;19929;-83
2023/03/01 01:47:55;;;;;;;;;;;;;;;3.42;100.00;98652.56;5071486;28;19962;-85
2023/03/01 01:50:22;;;;;;;;;;;;;;;3.45;100.00;98640.78;5066016;28;20023;-83
2023/03/01 01:52:50;;;;;;;;;;;;;;;3.40;100.00;98641.38;5061213;28;20024;-84
2023/03/01 01:55:20;;;;;;;;;;;;;;;3.41;100.00;98636.91;5060554;28;19935;-84
2023/03/01 01:57:49;;;;;;;;;;;;;;;3.42;100.00;98638.53;5049522;28;20558;-83
2023/03/01 02:00:18;;;;;;;;;;;;;;;3.38;100.00;98629.38;5068484;28;19928;-84
2023/03/01 02:02:45;;;;;;;;;;;;;;;3.31;100.00;98632.03;5076374;28;19971;-83
2023/03/01 02:05:15;;;;;;;;;;;;;;;3.07;100.00;98630.72;5082063;28;20012;-84
2023/03/01 02:07:43;;;;;;;;;;;;;;;3.06;100.00;98629.09;5057282;28;20448;-84
2023/03/01 02:10:10;;;;;;;;;;;;;;;2.67;100.00;98624.44;5081583;28;19928;-84
2023/03/01 02:12:36;;;;;;;;;;;;;;;2.55;100.00;98619.91;5083279;28;20511;-84
2023/03/01 02:15:05;;;;;;;;;;;;;;;2.64;100.00;98624.03;5080164;28;19974;-82
2023/03/01 02:17:32;;;;;;;;;;;;;;;2.43;100.00;98617.00;5067355;28;20297;-85
2023/03/01 02:20:06;;;;;;;;;;;;;;;2.48;100.00;98619.06;5067195;28;20015;-85
2023/03/01 02:22:34;;;;;;;;;;;;;;;2.49;100.00;98616.25;5080632;28;19931;-84
2023/03/01 02:25:08;;;;;;;;;;;;;;;2.63;100.00;98622.41;5083063;28;20026;-85
2023/03/01 02:27:39;;;;;;;;;;;;;;;2.61;100.00;98606.78;5074161;28;20406;-83
2023/03/01 02:30:08;;;;;;;;;;;;;;;2.60;100.00;98605.13;5068078;28;20019;-84
2023/03/01 02:32:34;;;;;;;;;;;;;;;2.56;100.00;98601.28;5068593;28;19924;-84
2023/03/01 02:35:00;;;;;;;;;;;;;;;2.31;100.00;98607.19;5074398;28;20629;-84
2023/03/01 02:37:27;;;;;;;;;;;;;;;2.43;100.00;98603.03;5057403;28;20012;-84
2023/03/01 02:39:57;;;;;;;;;;;;;;;2.18;100.00;98595.56;5055830;28;20782;-84
2023/03/01 02:42:27;;;;;;;;;;;;;;;2.17;100.00;98593.13;5074203;28;20415;-84
2023/03/01 02:44:53;;;;;;;;;;;;;;;1.97;100.00;98600.06;5082465;28;19986;-84
2023/03/01 02:47:21;;;;;;;;;;;;;;;1.82;100.00;98602.81;5072845;28;19982;-84
2023/03/01 02:49:47;;;;;;;;;;;;;;;1.63;100.00;98598.19;5076294;28;19924;-84
2023/03/01 02:52:28;;;;;;;;;;;;;;;1.58;100.00;98605.81;5069075;28;20391;-84
2023/03/01 02:54:58;;;;;;;;;;;;;;;1.60;100.00;98606.47;5084713;28;20462;-84
2023/03/01 02:57:27;;;;;;;;;;;;;;;1.87;100.00;98600.41;5079319;28;20725;-83
2023/03/01 02:59:55;;;;;;;;;;;;;;;1.89;100.00;98595.75;5084375;28;19981;-84
2023/03/01 03:02:35;;;;;;;;;;;;;;;2.01;100.00;98602.13;5085548;28;20018;-84
2023/03/01 03:05:02;;;;;;;;;;;;;;;2.06;100.00;98591.84;5082483;28;19934;-82
2023/03/01 03:07:28;;;;;;;;;;;;;;;2.35;100.00;98587.38;5065533;28;19934;-84
2023/03/01 03:09:55;;;;;;;;;;;;;;;2.44;100.00;98575.66;5078095;28;19938;-83
2023/03/01 03:12:21;;;;;;;;;;;;;;;2.59;100.00;98589.53;5071255;28;20019;-83
2023/03/01 03:14:48;;;;;;;;;;;;;;;2.75;100.00;98586.56;5064017;28;19929;-83
2023/03/01 03:17:14;;;;;;;;;;;;;;;2.88;100.00;98591.06;5052343;28;19932;-83
2023/03/01 03:19:45;;;;;;;;;;;;;;;2.93;100.00;98581.56;5048559;28;19924;-84
2023/03/01 03:22:11;;;;;;;;;;;;;;;2.99;100.00;98578.13;5076647;28;19924;-83
2023/03/01 03:24:38;;;;;;;;;;;;;;;3.02;100.00;98572.44;5060338;28;20015;-85
2023/03/01 03:27:04;;;;;;;;;;;;;;;2.95;100.00;98574.25;5072541;28;19935;-84
2023/03/01 03:29:31;;;;;;;;;;;;;;;2.96;100.00;98575.88;5051514;28;20001;-83
2023/03/01 03:31:57;;;;;;;;;;;;;;;2.87;100.00;98566.50;5075971;28;20440;-84
2023/03/01 03:34:23;;;;;;;;;;;;;;;2.91;100.00;98564.31;5073875;28;19992;-83
2023/03/01 03:36:56;;;;;;;;;;;;;;;2.91;100.00;98562.44;5070256;28;19932;-83
2023/03/01 03:39:22;;;;;;;;;;;;;;;2.93;100.00;98568.38;5056368;28;19927;-83
2023/03/01 03:41:49;;;;;;;;;;;;;;;2.95;100.00;98563.69;5080243;28;19928;-82
2023/03/01 03:44:15;;;;;;;;;;;;;;;2.89;100.00;98564.47;5064326;28;19924;-83
2023/03/01 03:46:41;;;;;;;;;;;;;;;2.89;100.00;98563.66;5076159;28;19970;-84
2023/03/01 03:49:08;;;;;;;;;;;;;;;2.93;100.00;98563.09;5083954;28;19927;-83
2023/03/01 03:51:34;;;;;;;;;;;;;;;2.96;100.00;98570.59;5061469;28;20022;-83
2023/03/01 03:54:02;;;;;;;;;;;;;;;3.00;100.00;98565.75;5069259;28;19955;-82
2023/03/01 03:56:28;;;;;;;;;;;;;;;2.99;100.00;98566.75;5081748;28;19928;-83
2023/03/01 03:58:54;;;;;;;;;;;;;;;2.98;100.00;98558.03;5082058;28;19938;-84
2023/03/01 04:01:21;;;;;;;;;;;;;;;2.76;100.00;98559.16;5063901;28;19924;-83
2023/03/01 04:03:47;;;;;;;;;;;;;;;2.50;100.00;98565.16;5073911;28;19924;-84
2023/03/01 04:06:14;;;;;;;;;;;;;;;2.30;100.00;98555.50;5064758;28;19924;-84
2023/03/01 04:08:41;;;;;;;;;;;;;;;1.98;100.00;98549.03;5078378;28;19928;-84
2023/03/01 04:11:27;;;;;;;;;;;;;;;1.83;100.00;98561.47;5072631;28;19930;-83
2023/03/01 04:13:57;;;;;;;;;;;;;;;1.48;100.00;98552.69;5062039;28;19928;-84
2023/03/01 04:16:23;;;;;;;;;;;;;;;1.31;100.00;98553.94;5059613;28;19924;-83
2023/03/01 04:18:50;;;;;;;;;;;;;;;1.59;100.00;98558.25;5063113;28;19928;-83
2023/03/01 04:21:16;;;;;;;;;;;;;;;1.25;100.00;98566.03;5074736;28;19928;-84
2023/03/01 04:23:43;;;;;;;;;;;;;;;1.23;100.00;98554.91;5065098;28;19931;-84
2023/03/01 04:26:10;;;;;;;;;;;;;;;0.98;100.00;98551.00;5066565;28;19943;-83
2023/03/01 04:28:38;;;;;;;;;;;;;;;1.05;100.00;98555.31;5063612;28;19924;-84
2023/03/01 04:31:12;;;;;;;;;;;;;;;0.95;100.00;98559.25;5065010;28;19928;-83
2023/03/01 04:33:39;;;;;;;;;;;;;;;0.87;100.00;98560.16;5055376;28;19928;-82
2023/03/01 04:36:08;;;;;;;;;;;;;;;0.79;100.00;98562.09;5068704;28;20402;-83
2023/03/01 04:38:34;;;;;;;;;;;;;;;1.02;100.00;98555.69;5073106;28;19975;-83
2023/03/01 04:41:03;;;;;;;;;;;;;;;0.79;100.00;98559.47;5075180;28;20434;-82
2023/03/01 04:43:30;;;;;;;;;;;;;;;0.57;100.00;98566.50;5071823;28;19970;-83
2023/03/01 04:46:02;;;;;;;;;;;;;;;0.49;100.00;98564.78;5059290;28;19924;-83
2023/03/01 04:48:28;;;;;;;;;;;;;;;0.72;100.00;98556.75;5063009;28;19928;-83
2023/03/01 04:50:55;;;;;;;;;;;;;;;0.39;100.00;98564.25;5079369;28;19925;-84
2023/03/01 04:53:21;;;;;;;;;;;;;;;0.79;100.00;98560.28;5073836;28;20077;-82
2023/03/01 04:55:47;;;;;;;;;;;;;;;0.52;100.00;98561.81;5077748;28;19928;-83
2023/03/01 04:58:14;;;;;;;;;;;;;;;0.90;100.00;98566.88;5057684;28;19966;-84
2023/03/01 05:00:41;;;;;;;;;;;;;;;0.76;100.00;98551.94;5070801;28;19924;-83
2023/03/01 05:03:09;;;;;;;;;;;;;;;0.59;100.00;98561.06;5075046;28;19959;-84
2023/03/01 05:05:36;;;;;;;;;;;;;;;0.71;100.00;98565.66;5059393;28;19954;-84
2023/03/01 05:08:04;;;;;;;;;;;;;;;0.57;100.00;98563.88;5076291;28;20197;-84
2023/03/01 05:10:31;;;;;;;;;;;;;;;0.55;100.00;98565.88;5052955;28;19928;-83
2023/03/01 05:12:58;;;;;;;;;;;;;;;0.57;100.00;98563.88;5039081;28;19932;-83
2023/03/01 05:15:25;;;;;;;;;;;;;;;0.30;100.00;98562.72;5067128;28;20474;-83
2023/03/01 05:17:54;;;;;;;;;;;;;;;0.38;100.00;98559.16;5066675;28;19928;-83
2023/03/01 05:20:22;;;;;;;;;;;;;;;0.30;100.00;98556.66;5077955;28;19967;-83
2023/03/01 05:22:49;;;;;;;;;;;;;;;0.54;100.00;98562.41;5072749;28;19950;-83
2023/03/01 05:25:15;;;;;;;;;;;;;;;0.30;100.00;98559.28;5070074;28;20030;-83
2023/03/01 05:27:42;;;;;;;;;;;;;;;0.26;100.00;98552.75;5066953;28;19928;-82
2023/03/01 05:30:14;;;;;;;;;;;;;;;0.20;100.00;98566.59;5071305;28;19959;-83
2023/03/01 05:32:44;;;;;;;;;;;;;;;0.24;100.00;98554.75;5071073;28;19931;-84
2023/03/01 05:35:13;;;;;;;;;;;;;;;0.01;100.00;98549.56;5082536;28;19970;-83
2023/03/01 05:37:41;;;;;;;;;;;;;;;0.07;100.00;98555.91;5064790;28;20003;-84
2023/03/01 05:40:15;;;;;;;;;;;;;;;0.05;100.00;98547.41;5075292;28;19924;-85
2023/03/01 05:42:41;;;;;;;;;;;;;;;0.33;100.00;98541.34;5055197;28;19974;-85
2023/03/01 05:45:09;;;;;;;;;;;;;;;0.15;100.00;98547.97;5069311;28;19929;-84
2023/03/01 05:47:36;;;;;;;;;;;;;;;0.11;100.00;98546.69;5079891;28;19928;-84
2023/03/01 05:50:02;;;;;;;;;;;;;;;0.15;100.00;98543.53;5078585;28;19931;-83
2023/03/01 05:52:30;;;;;;;;;;;;;;;-0.10;100.00;98544.78;5073317;28;19959;-83
2023/03/01 05:54:56;;;;;;;;;;;;;;;0.00;100.00;98543.50;5073415;28;19924;-83
2023/03/01 05:57:23;;;;;;;;;;;;;;;-0.06;100.00;98540.78;5079229;28;19959;-83
2023/03/01 05:59:49;;;;;;;;;;;;;;;-0.12;100.00;98544.13;5060331;28;19929;-83
2023/03/01 06:02:16;;;;;;;;;;;;;;;0.03;100.00;98546.78;5046353;28;19924;-83
2023/03/01 06:04:42;;;;;;;;;;;;;;;-0.08;100.00;98548.03;5060159;28;20424;-83
2023/03/01 06:07:08;;;;;;;;;;;;;;;0.18;100.00;98550.22;5053927;28;19958;-84
2023/03/01 06:09:38;;;;;;;;;;;;;;;0.46;100.00;98545.94;5071684;28;19967;-84
2023/03/01 06:12:05;;;;;;;;;;;;;;;0.59;100.00;98537.41;5078882;28;20015;-83
2023/03/01 06:14:32;;;;;;;;;;;;;;;0.30;100.00;98540.88;5074607;28;19925;-84
2023/03/01 06:16:58;;;;;;;;;;;;;;;0.31;100.00;98548.56;5079787;28;19924;-84
2023/03/01 06:19:24;;;;;;;;;;;;;;;0.24;100.00;98546.88;5054022;28;19924;-82
2023/03/01 06:21:51;;;;;;;;;;;;;;;-0.16;100.00;98550.75;5063495;28;19928;-83
2023/03/01 06:24:17;;;;;;;;;;;;;;;-0.13;100.00;98534.63;5075009;28;19928;-83
2023/03/01 06:26:45;;;;;;;;;;;;;;;-0.04;100.00;98550.13;5080745;28;19942;-82
2023/03/01 06:29:11;;;;;;;;;;;;;;;0.28;100.00;98543.69;5072614;28;20003;-83
2023/03/01 06:31:38;;;;;;;;;;;;;;;0.40;100.00;98547.47;5079629;28;20570;-83
2023/03/01 06:34:04;;;;;;;;;;;;;;;0.32;100.00;98539.69;5067590;28;19967;-83
2023/03/01 06:36:30;;;;;;;;;;;;;;;0.26;100.00;98543.06;5080136;28;19928;-83
2023/03/01 06:38:58;;;;;;;;;;;;;;;0.10;100.00;98540.59;5077712;28;21297;-84
2023/03/01 06:41:25;;;;;;;;;;;;;;;-0.07;100.00;98542.59;5075577;28;20010;-84
2023/03/01 06:43:54;;;;;;;;;;;;;;;-0.01;100.00;98539.25;5067031;28;19932;-82
2023/03/01 06:46:21;;;;;;;;;;;;;;;0.18;100.00;98540.53;5062823;28;20372;-84
2023/03/01 06:48:47;;;;;;;;;;;;;;;0.10;100.00;98545.03;5071064;28;19928;-82
2023/03/01 06:51:14;;;;;;;;;;;;;;;-0.02;100.00;98527.13;5077432;28;20498;-83
2023/03/01 06:53:40;;;;;;;;;;;;;;;0.21;100.00;98547.22;5046514;28;19924;-84
2023/03/01 06:56:07;;;;;;;;;;;;;;;0.30;100.00;98546.13;5059572;28;19935;-83
2023/03/01 06:58:33;;;;;;;;;;;;;;;0.32;100.00;98552.00;5059405;28;19924;-83
2023/03/01 07:01:01;;;;;;;;;;;;;;;0.35;100.00;98547.22;5073520;28;19951;-82
2023/03/01 07:03:27;;;;;;;;;;;;;;;0.35;100.00;98544.59;5073333;28;20016;-82
2023/03/01 07:05:53;;;;;;;;;;;;;;;0.61;100.00;98554.63;5075292;28;19928;-83
2023/03/01 07:08:20;;;;;;;;;;;;;;;0.88;100.00;98551.28;5067707;28;19934;-83
2023/03/01 07:10:46;;;;;;;;;;;;;;;0.85;100.00;98556.91;5057871;28;20334;-83
2023/03/01 07:13:12;;;;;;;;;;;;;;;1.12;100.00;98547.47;5065364;28;19928;-84
2023/03/01 07:15:40;;;;;;;;;;;;;;;1.01;100.00;98546.19;5068949;28;20407;-84
2023/03/01 07:18:08;;;;;;;;;;;;;;;1.23;100.00;98530.41;5083582;28;19966;-83
2023/03/01 07:20:35;;;;;;;;;;;;;;;0.94;100.00;98540.03;5086017;28;20001;-84
2023/03/01 07:23:01;;;;;;;;;;;;;;;1.02;100.00;98547.00;5064086;28;19928;-82
2023/03/01 07:25:28;;;;;;;;;;;;;;;0.95;100.00;98541.66;5064035;28;19951;-83
2023/03/01 07:27:54;;;;;;;;;;;;;;;0.89;100.00;98536.34;5077930;28;19924;-83
2023/03/01 07:30:21;;;;;;;;;;;;;;;0.99;100.00;98529.75;5078251;28;20459;-83
2023/03/01 07:32:47;;;;;;;;;;;;;;;0.95;100.00;98535.59;5077001;28;19964;-83
2023/03/01 07:35:15;;;;;;;;;;;;;;;1.28;100.00;98531.47;5078480;28;20018;-83
2023/03/01 07:37:42;;;;;;;;;;;;;;;1.14;100.00;98534.16;5065907;28;19930;-83
2023/03/01 07:40:09;;;;;;;;;;;;;;;1.19;100.00;98542.28;5064740;28;20034;-84
2023/03/01 07:42:35;;;;;;;;;;;;;;;1.01;100.00;98540.91;5071126;28;19935;-81
2023/03/01 07:45:01;;;;;;;;;;;;;;;0.94;100.00;98542.66;5068928;28;20407;-83
2023/03/01 07:47:28;;;;;;;;;;;;;;;1.10;100.00;98538.97;5073165;28;19929;-82
2023/03/01 07:49:54;;;;;;;;;;;;;;;1.14;100.00;98539.41;5075367;28;19928;-82
2023/03/01 07:52:22;;;;;;;;;;;;;;;1.18;100.00;98524.91;5068660;28;19924;-85
2023/03/01 07:54:48;;;;;;;;;;;;;;;1.61;100.00;98526.47;5060717;28;20023;-83
2023/03/01 07:57:15;;;;;;;;;;;;;;;1.55;100.00;98524.59;5078846;28;19963;-83
2023/03/01 07:59:41;;;;;;;;;;;;;;;1.74;100.00;98523.13;5064161;28;19971;-83
2023/03/01 08:02:08;;;;;;;;;;;;;;;1.76;100.00;98521.94;5080755;28;20504;-83
2023/03/01 08:04:35;;;;;;;;;;;;;;;1.95;100.00;98517.81;5064965;28;19924;-83
2023/03/01 08:07:01;;;;;;;;;;;;;;;1.96;100.00;98524.69;5077977;28;19954;-82
2023/03/01 08:09:29;;;;;;;;;;;;;;;2.05;100.00;98519.06;5077527;28;19924;-81
2023/03/01 08:11:59;;;;;;;;;;;;;;;1.92;100.00;98516.34;5080002;28;19951;-82
2023/03/01 08:14:25;;;;;;;;;;;;;;;1.91;100.00;98522.66;5073745;28;20012;-82
2023/03/01 08:16:51;;;;;;;;;;;;;;;1.95;100.00;98521.22;5085666;28;19971;-83
2023/03/01 08:19:18;;;;;;;;;;;;;;;2.14;100.00;98512.63;5070147;28;19931;-83
2023/03/01 08:21:44;;;;;;;;;;;;;;;2.24;100.00;98512.28;5068917;28;20021;-83
2023/03/01 08:24:11;;;;;;;;;;;;;;;2.33;100.00;98510.28;5073493;28;19931;-84
2023/03/01 08:26:38;;;;;;;;;;;;;;;2.33;100.00;98510.28;5072003;28;20027;-83
2023/03/01 08:29:05;;;;;;;;;;;;;;;2.22;100.00;98508.22;5063694;28;19955;-82
2023/03/01 08:31:35;;;;;;;;;;;;;;;2.28;100.00;98513.53;5054784;28;20027;-83
2023/03/01 08:34:02;;;;;;;;;;;;;;;2.26;100.00;98504.19;5038406;28;20757;-84
2023/03/01 08:36:29;;;;;;;;;;;;;;;2.25;100.00;98506.03;5066424;28;20014;-83
2023/03/01 08:38:55;;;;;;;;;;;;;;;2.27;100.00;98498.72;5074009;28;19928;-84
2023/03/01 08:41:22;;;;;;;;;;;;;;;2.37;100.00;98503.63;5067497;28;20035;-82
2023/03/01 08:43:49;;;;;;;;;;;;;;;2.41;100.00;98503.06;5058789;28;19966;-83
2023/03/01 08:46:16;;;;;;;;;;;;;;;2.43;100.00;98505.47;5062262;28;20421;-85
2023/03/01 08:48:43;;;;;;;;;;;;;;;2.42;100.00;98488.03;5079731;28;19924;-84
2023/03/01 08:51:09;;;;;;;;;;;;;;;2.46;100.00;98491.91;5036362;28;19967;-84
2023/03/01 08:53:36;;;;;;;;;;;;;;;2.45;100.00;98485.81;5062764;28;20034;-83
2023/03/01 08:56:03;;;;;;;;;;;;;;;2.45;100.00;98488.44;5052162;28;20026;-83
2023/03/01 08:58:29;;;;;;;;;;;;;;;2.39;100.00;98485.78;5074694;28;19935;-83
2023/03/01 09:00:57;;;;;;;;;;;;;;;2.34;100.00;98486.41;5076792;28;20040;-83
2023/03/01 09:03:24;;;;;;;;;;;;;;;2.52;100.00;98483.22;5069678;28;20035;-85
2023/03/01 09:05:50;;;;;;;;;;;;;;;2.59;100.00;98484.06;5078932;28;20629;-81
2023/03/01 09:08:17;;;;;;;;;;;;;;;2.65;100.00;98470.91;5083885;28;20015;-81
2023/03/01 09:10:43;;;;;;;;;;;;;;;2.65;100.00;98462.97;5080383;28;19938;-84
2023/03/01 09:13:09;;;;;;;;;;;;;;;2.55;100.00;98473.09;5077371;28;19967;-83
2023/03/01 09:15:37;;;;;;;;;;;;;;;2.62;100.00;98455.47;5051794;28;19924;-83
2023/03/01 09:18:05;;;;;;;;;;;;;;;2.63;100.00;98453.66;5080991;28;19961;-82
2023/03/01 09:20:32;;;;;;;;;;;;;;;2.67;100.00;98462.75;5061783;28;19934;-85
2023/03/01 09:22:58;;;;;;;;;;;;;;;2.76;100.00;98453.66;5050279;28;19967;-84
2023/03/01 09:25:25;;;;;;;;;;;;;;;2.81;100.00;98450.44;5055951;28;20391;-82
2023/03/01 09:27:51;;;;;;;;;;;;;;;2.85;100.00;98446.41;5064914;28;20034;-83
2023/03/01 09:30:18;;;;;;;;;;;;;;;2.87;100.00;98442.53;5048844;28;20046;-82
2023/03/01 09:32:44;;;;;;;;;;;;;;;2.95;100.00;98442.34;5042100;28;19924;-83
2023/03/01 09:35:12;;;;;;;;;;;;;;;2.86;100.00;98440.91;5042243;28;19978;-84
2023/03/01 09:37:39;;;;;;;;;;;;;;;2.90;100.00;98434.22;5070403;28;19936;-84
2023/03/01 09:40:07;;;;;;;;;;;;;;;2.95;100.00;98431.78;5076678;28;19924;-84
2023/03/01 09:42:34;;;;;;;;;;;;;;;3.00;100.00;98431.19;5061200;28;20609;-83
2023/03/01 09:45:02;;;;;;;;;;;;;;;3.03;100.00;98439.50;5062347;28;20460;-83
2023/03/01 09:47:30;;;;;;;;;;;;;;;3.17;100.00;98433.22;5047032;28;19925;-83
2023/03/01 09:50:00;;;;;;;;;;;;;;;3.14;100.00;98438.91;5070790;28;19925;-83
2023/03/01 09:52:30;;;;;;;;;;;;;;;3.16;100.00;98442.13;5077189;28;19925;-84
2023/03/01 09:54:57;;;;;;;;;;;;;;;3.11;100.00;98441.13;5082540;28;19924;-86
2023/03/01 09:57:29;;;;;;;;;;;;;;;2.83;100.00;98446.56;5071841;28;19933;-85
2023/03/01 10:00:04;;;;;;;;;;;;;;;2.78;100.00;98445.56;5085206;28;19954;-81
2023/03/01 10:02:36;;;;;;;;;;;;;;;2.85;100.00;98431.34;5085282;28;19997;-83
2023/03/01 10:05:11;;;;;;;;;;;;;;;3.21;100.00;98436.25;5082831;28;19924;-84
2023/03/01 10:07:43;;;;;;;;;;;;;;;3.36;100.00;98430.78;5082692;28;20096;-83
2023/03/01 10:10:17;;;;;;;;;;;;;;;3.36;100.00;98422.84;5085193;28;19924;-85
2023/03/01 10:12:45;;;;;;;;;;;;;;;3.37;100.00;98413.94;5071087;28;19930;-80
2023/03/01 10:15:14;;;;;;;;;;;;;;;3.67;100.00;98417.72;5066322;28;20704;-84
2023/03/01 10:17:42;;;;;;;;;;;;;;;3.34;100.00;98411.69;5046368;28;19931;-82
2023/03/01 10:20:17;;;;;;;;;;;;;;;3.63;100.00;98400.66;5059005;28;19924;-83
2023/03/01 10:22:50;;;;;;;;;;;;;;;3.85;98.85;98403.88;5075072;28;20137;-83
2023/03/01 10:25:18;;;;;;;;;;;;;;;3.66;99.63;98400.25;5048328;28;19960;-83
2023/03/01 10:27:48;;;;;;;;;;;;;;;3.86;98.13;98393.09;5050802;28;19928;-84
2023/03/01 10:30:19;;;;;;;;;;;;;;;3.64;99.46;98394.38;5075751;28;20414;-82
2023/03/01 10:32:48;;;;;;;;;;;;;;;3.89;98.98;98382.13;5064938;28;19932;-83
2023/03/01 10:35:20;;;;;;;;;;;;;;;3.91;97.66;98373.97;5055924;28;19928;-82
2023/03/01 10:38:03;;;;;;;;;;;;;;;4.15;96.31;98375.88;5079232;28;20049;-83
2023/03/01 10:40:29;;;;;;;;;;;;;;;4.24;95.04;98375.44;5070683;28;19929;-82
2023/03/01 10:42:57;;;;;;;;;;;;;;;4.25;94.31;98379.72;5067859;28;20564;-82
2023/03/01 10:45:30;;;;;;;;;;;;;;;4.33;95.04;98355.66;5073729;28;19932;-83
2023/03/01 10:48:04;;;;;;;;;;;;;;;4.47;94.50;98348.47;5079631;28;19928;-82
2023/03/01 10:50:31;;;;;;;;;;;;;;;4.54;93.88;98349.25;5072018;28;19938;-81
2023/03/01 10:52:59;;;;;;;;;;;;;;;4.60;93.53;98347.59;5070140;28;19977;-83
2023/03/01 10:55:28;;;;;;;;;;;;;;;4.70;93.47;98343.44;5068500;28;19932;-84
2023/03/01 10:58:07;;;;;;;;;;;;;;;4.68;93.42;98342.84;5072432;28;19932;-84
2023/03/01 11:00:33;;;;;;;;;;;;;;;4.65;92.48;98339.81;5076723;28;19959;-84
2023/03/01 11:03:10;;;;;;;;;;;;;;;4.75;90.51;98335.66;5077745;28;19935;-83
2023/03/01 11:05:36;;;;;;;;;;;;;;;4.82;90.16;98332.97;5074265;28;19924;-84
2023/03/01 11:08:03;;;;;;;;;;;;;;;4.86;87.23;98324.38;5059235;28;20363;-84
2023/03/01 11:10:33;;;;;;;;;;;;;;;4.92;86.47;98319.25;5062055;28;19928;-82
2023/03/01 11:13:09;;;;;;;;;;;;;;;4.81;89.22;98318.94;5048438;28;19948;-82
2023/03/01 11:15:36;;;;;;;;;;;;;;;5.20;85.36;98312.44;5073047;28;19928;-81
2023/03/01 11:18:03;;;;;;;;;;;;;;;5.41;83.67;98313.91;5076035;28;19939;-83
2023/03/01 11:20:31;;;;;;;;;;;;;;;5.32;83.92;98316.00;5055478;28;19975;-82
2023/03/01 11:23:00;;;;;;;;;;;;;;;5.23;85.51;98305.94;5064439;28;19928;-82
2023/03/01 11:25:28;;;;;;;;;;;;;;;5.35;84.14;98299.66;5066620;28;19938;-83
2023/03/01 11:27:57;;;;;;;;;;;;;;;5.27;86.12;98299.97;5074698;28;19935;-83
2023/03/01 11:30:25;;;;;;;;;;;;;;;5.37;85.34;98283.56;5060131;28;20019;-83
2023/03/01 11:32:57;;;;;;;;;;;;;;;5.54;85.24;98284.59;5045604;28;19924;-83
2023/03/01 11:35:26;;;;;;;;;;;;;;;5.56;84.73;98287.03;5063500;28;19932;-82
2023/03/01 11:38:00;;;;;;;;;;;;;;;5.42;88.55;98279.22;5081735;28;19924;-83
2023/03/01 11:40:28;;;;;;;;;;;;;;;5.44;87.27;98269.25;5071484;28;20561;-83
2023/03/01 11:43:02;;;;;;;;;;;;;;;5.43;87.47;98264.97;5063078;28;20410;-83
2023/03/01 11:45:31;;;;;;;;;;;;;;;5.64;87.32;98262.88;5054849;28;19928;-83
2023/03/01 11:48:13;;;;;;;;;;;;;;;5.76;85.65;98271.69;5049773;28;20026;-83
2023/03/01 11:50:41;;;;;;;;;;;;;;;5.69;88.44;98263.03;5061868;28;19929;-81
2023/03/01 11:53:26;;;;;;;;;;;;;;;5.89;87.45;98253.81;5078200;28;20651;-83
2023/03/01 11:55:59;;;;;;;;;;;;;;;5.93;86.39;98251.53;5056779;28;19928;-82
2023/03/01 11:58:38;;;;;;;;;;;;;;;6.06;86.21;98243.41;5036476;28;19997;-84
2023/03/01 12:01:10;;;;;;;;;;;;;;;5.94;87.56;98245.22;5055026;28;19939;-83
2023/03/01 12:03:48;;;;;;;;;;;;;;;6.11;85.86;98232.91;5070822;28;19975;-84
2023/03/01 12:06:27;;;;;;;;;;;;;;;6.04;86.01;98240.16;5063876;28;19925;-83
2023/03/01 12:09:01;;;;;;;;;;;;;;;6.03;86.98;98224.47;5066327;28;19924;-82
2023/03/01 12:11:36;;;;;;;;;;;;;;;6.28;86.26;98227.78;5069877;28;19924;-83
2023/03/01 12:14:18;;;;;;;;;;;;;;;6.27;85.40;98229.63;5062946;28;20395;-84
2023/03/01 12:17:03;;;;;;;;;;;;;;;6.15;87.80;98220.84;5051527;28;20005;-83
2023/03/01 12:19:52;;;;;;;;;;;;;;;6.15;87.31;98220.84;5082536;28;19967;-82
2023/03/01 12:22:25;;;;;;;;;;;;;;;6.43;87.15;98215.69;5080618;28;19925;-83
2023/03/01 12:25:05;;;;;;;;;;;;;;;6.22;88.26;98216.22;5081003;28;19956;-83
2023/03/01 12:27:40;;;;;;;;;;;;;;;6.24;87.31;98208.84;5072409;28;19928;-83
2023/03/01 12:30:18;;;;;;;;;;;;;;;6.44;87.41;98219.94;5060091;28;20024;-82
2023/03/01 12:32:53;;;;;;;;;;;;;;;6.13;91.58;98203.53;5080852;28;20602;-81
2023/03/01 12:35:36;;;;;;;;;;;;;;;6.46;88.88;98195.84;5054287;28;19924;-82
2023/03/01 12:38:12;;;;;;;;;;;;;;;6.53;89.13;98194.69;5057336;28;20591;-84
2023/03/01 12:40:47;;;;;;;;;;;;;;;6.66;90.09;98185.69;5058000;28;19938;-81
2023/03/01 12:43:21;;;;;;;;;;;;;;;6.74;88.87;98176.59;5051036;28;19951;-83
2023/03/01 12:46:07;;;;;;;;;;;;;;;6.46;88.72;98191.38;5076640;28;19971;-83
2023/03/01 12:48:41;;;;;;;;;;;;;;;6.74;88.59;98197.84;5061898;28;20334;-84
2023/03/01 12:51:10;;;;;;;;;;;;;;;6.41;89.64;98191.22;5071430;28;20577;-83
2023/03/01 12:53:39;;;;;;;;;;;;;;;6.21;94.09;98185.44;5080557;28;20467;-83
2023/03/01 12:56:08;;;;;;;;;;;;;;;6.57;92.64;98186.28;5069289;28;20024;-83